Time;durP1;ratioP1;P1;durP2;ratioP2;P2;SDS_P1;SDS_P2;PMS_P1;PMS_P2;Temp;Humidity;BMP_temperature;BMP_pressure;BME280_temperature;BME280_humidity;BME280_pressure;Samples;Min_cycle;Max_cycle;Signal;HPM_P1;HPM_P2
2022/03/22 00:01:42;;;;;;;7.15;4.33;;;;;;;9.24;51.21;103082.14;1670575;85;21062;-75
2022/03/22 00:04:10;;;;;;;6.42;3.95;;;;;;;9.24;51.03;103081.26;1659408;84;21042;-70
2022/03/22 00:06:37;;;;;;;13.58;4.58;;;;;;;9.22;50.59;103081.23;1664878;84;21095;-70
2022/03/22 00:09:04;;;;;;;6.80;4.42;;;;;;;9.25;50.54;103084.33;1682168;85;21637;-70
2022/03/22 00:11:33;;;;;;;6.45;3.92;;;;;;;9.25;50.78;103078.72;1680936;84;21566;-71
2022/03/22 00:14:01;;;;;;;7.37;4.12;;;;;;;9.26;51.11;103079.16;1665589;85;21589;-70
2022/03/22 00:16:29;;;;;;;7.53;4.50;;;;;;;9.24;51.20;103078.25;1671793;85;21097;-70
2022/03/22 00:18:58;;;;;;;6.33;4.75;;;;;;;9.21;51.15;103076.87;1662129;84;21030;-70
2022/03/22 00:21:26;;;;;;;7.80;4.50;;;;;;;9.19;51.12;103066.87;1662861;84;21538;-70
2022/03/22 00:23:55;;;;;;;8.03;4.83;;;;;;;9.18;51.13;103068.15;1665996;85;21090;-71
2022/03/22 00:26:22;;;;;;;7.25;4.85;;;;;;;9.17;51.14;103063.37;1667100;84;21550;-70
2022/03/22 00:28:50;;;;;;;9.30;4.70;;;;;;;9.15;51.20;103064.20;1692847;83;21043;-70
2022/03/22 00:31:19;;;;;;;7.25;4.87;;;;;;;9.12;51.23;103057.22;1702678;83;21074;-70
2022/03/22 00:33:46;;;;;;;7.83;4.62;;;;;;;9.11;51.29;103059.34;1702605;83;21554;-68
2022/03/22 00:36:13;;;;;;;7.42;4.70;;;;;;;9.10;51.25;103058.91;1703753;83;21014;-70
2022/03/22 00:38:43;;;;;;;8.70;4.45;;;;;;;9.11;51.25;103054.15;1760218;80;21510;-72
2022/03/22 00:41:13;;;;;;;6.17;4.65;;;;;;;9.11;51.19;103050.25;1778497;80;21029;-73
2022/03/22 00:43:40;;;;;;;8.80;4.42;;;;;;;9.11;51.31;103050.25;1766406;80;21050;-72
2022/03/22 00:46:08;;;;;;;8.13;5.15;;;;;;;9.11;51.27;103047.66;1779806;80;21092;-67
2022/03/22 00:48:35;;;;;;;8.35;4.28;;;;;;;9.11;51.29;103041.16;1783893;80;21089;-70
2022/03/22 00:51:04;;;;;;;6.35;3.92;;;;;;;9.11;51.27;103035.97;1778312;80;21057;-70
2022/03/22 00:53:32;;;;;;;7.53;4.90;;;;;;;9.10;51.39;103038.55;1776902;80;21078;-70
2022/03/22 00:56:01;;;;;;;9.73;4.58;;;;;;;9.08;51.56;103037.23;1765386;81;20998;-71
2022/03/22 00:58:29;;;;;;;6.10;4.35;;;;;;;9.07;51.67;103030.27;1763835;81;21065;-70
2022/03/22 01:00:59;;;;;;;7.67;4.35;;;;;;;9.06;51.66;103033.72;1763571;81;21082;-70
2022/03/22 01:03:29;;;;;;;9.68;4.40;;;;;;;9.05;51.67;103029.36;1763461;81;20979;-68
2022/03/22 01:05:59;;;;;;;5.58;4.05;;;;;;;9.04;51.61;103030.22;1762546;81;21503;-71
2022/03/22 01:08:26;;;;;;;8.40;4.58;;;;;;;9.05;51.49;103026.76;1757959;81;21042;-68
2022/03/22 01:10:53;;;;;;;9.63;4.92;;;;;;;9.05;51.50;103026.76;1762314;81;21085;-68
2022/03/22 01:13:27;;;;;;;10.63;4.75;;;;;;;9.06;51.49;103019.85;1770321;81;21021;-70
2022/03/22 01:15:54;;;;;;;8.28;4.42;;;;;;;9.06;51.35;103022.03;1765024;81;21014;-68
2022/03/22 01:18:23;;;;;;;8.73;4.90;;;;;;;9.08;51.32;103032.03;1763235;81;21028;-68
2022/03/22 01:20:51;;;;;;;9.18;4.85;;;;;;;9.06;51.36;103025.93;1762214;81;21050;-71
2022/03/22 01:23:21;;;;;;;6.97;4.97;;;;;;;9.07;51.37;103018.58;1763329;81;21522;-74
2022/03/22 01:25:48;;;;;;;6.40;4.47;;;;;;;9.06;51.35;103023.33;1764116;81;20998;-71
2022/03/22 01:28:16;;;;;;;7.72;4.60;;;;;;;9.05;51.42;103016.37;1759875;81;21050;-68
2022/03/22 01:30:43;;;;;;;7.62;4.35;;;;;;;9.05;51.37;103016.37;1766746;81;21031;-69
2022/03/22 01:35:41;;;;;;;5.45;4.30;;;;;;;9.03;51.38;103018.06;1709090;83;21094;-70
2022/03/22 01:38:08;;;;;;;5.37;3.62;;;;;;;9.00;51.31;103020.16;1712380;84;21042;-73
2022/03/22 01:40:35;;;;;;;6.03;4.35;;;;;;;9.01;51.39;103024.95;1712384;83;21102;-68
2022/03/22 01:43:03;;;;;;;7.78;5.10;;;;;;;9.01;51.44;103014.14;1712380;83;21511;-68
2022/03/22 01:45:30;;;;;;;7.20;4.40;;;;;;;9.00;51.39;103018.02;1712481;83;21590;-70
2022/03/22 01:48:02;;;;;;;8.08;4.28;;;;;;;8.96;51.57;103016.20;1712980;83;21555;-68
2022/03/22 01:50:29;;;;;;;9.18;5.33;;;;;;;8.97;51.58;103023.13;1712575;83;21085;-71
2022/03/22 01:52:59;;;;;;;7.17;4.75;;;;;;;8.96;51.42;103016.20;1712770;83;21077;-68
2022/03/22 01:55:26;;;;;;;8.25;4.90;;;;;;;8.96;51.41;103017.50;1719540;83;21598;-67
2022/03/22 01:57:54;;;;;;;8.03;4.60;;;;;;;8.95;51.35;103011.84;1720832;83;21054;-71
2022/03/22 02:00:21;;;;;;;7.90;4.72;;;;;;;8.94;51.35;103012.70;1698615;83;21030;-71
2022/03/22 02:05:51;;;;;;;7.62;4.85;;;;;;;8.92;51.40;103010.49;1717240;83;21033;-68
2022/03/22 02:08:18;;;;;;;7.05;4.95;;;;;;;8.89;51.19;103009.11;1720625;83;21054;-67
2022/03/22 02:10:47;;;;;;;9.45;5.28;;;;;;;8.87;51.14;103003.02;1720807;83;21562;-67
2022/03/22 02:13:15;;;;;;;8.08;4.97;;;;;;;8.87;51.31;103008.20;1707868;83;21027;-71
2022/03/22 02:15:43;;;;;;;8.18;4.97;;;;;;;8.86;51.29;103005.17;1720745;83;21077;-67
2022/03/22 02:18:12;;;;;;;8.20;4.83;;;;;;;8.84;51.19;103005.13;1720304;83;21089;-75
2022/03/22 02:20:40;;;;;;;8.58;5.55;;;;;;;8.81;51.14;103005.07;1720778;83;21011;-71
2022/03/22 02:23:19;;;;;;;9.45;5.78;;;;;;;8.78;51.15;103009.30;1717585;83;21022;-71
2022/03/22 02:25:51;;;;;;;8.63;5.35;;;;;;;8.75;51.17;103010.55;1687980;85;21004;-70
2022/03/22 02:28:20;;;;;;;7.92;5.25;;;;;;;8.72;51.30;103014.36;1692265;85;21516;-69
2022/03/22 02:30:50;;;;;;;9.45;5.35;;;;;;;8.69;51.41;103013.02;1691880;85;21079;-67
2022/03/22 02:33:16;;;;;;;8.65;5.05;;;;;;;8.64;51.54;103013.32;1691272;85;21061;-67
2022/03/22 02:35:44;;;;;;;10.63;5.60;;;;;;;8.61;51.87;103012.86;1691833;85;21107;-70
2022/03/22 02:38:12;;;;;;;10.43;5.62;;;;;;;8.58;52.01;103011.89;1692505;85;21545;-68
2022/03/22 02:40:39;;;;;;;10.95;5.70;;;;;;;8.54;52.23;103012.67;1691576;85;21065;-71
2022/03/22 02:43:08;;;;;;;9.53;5.58;;;;;;;8.51;52.45;103016.06;1691631;85;21041;-71
2022/03/22 02:45:36;;;;;;;9.48;5.37;;;;;;;8.47;52.62;103008.20;1691881;85;21072;-69
2022/03/22 02:48:04;;;;;;;9.73;5.53;;;;;;;8.45;52.64;103009.88;1691733;85;21573;-67
2022/03/22 02:50:32;;;;;;;11.05;5.80;;;;;;;8.42;52.49;103007.20;1692019;85;21017;-68
2022/03/22 02:53:01;;;;;;;9.55;5.67;;;;;;;8.41;52.11;103005.02;1691979;85;21029;-69
2022/03/22 02:55:29;;;;;;;8.38;5.22;;;;;;;8.40;51.91;103003.70;1683270;85;21050;-71
2022/03/22 02:57:56;;;;;;;7.92;5.22;;;;;;;8.39;51.75;103001.97;1680941;85;21544;-68
2022/03/22 03:00:24;;;;;;;10.95;5.85;;;;;;;8.38;51.74;103006.69;1681611;85;21551;-71
2022/03/22 03:02:54;;;;;;;9.60;5.58;;;;;;;8.38;51.67;103006.69;1708602;82;21545;-72
2022/03/22 03:05:22;;;;;;;8.73;5.58;;;;;;;8.36;51.68;103000.58;1755260;82;21022;-68
2022/03/22 03:07:50;;;;;;;10.60;5.42;;;;;;;8.33;51.71;102994.02;1755650;82;21042;-71
2022/03/22 03:10:19;;;;;;;10.25;5.20;;;;;;;8.31;51.67;102995.70;1754907;82;21515;-70
2022/03/22 03:12:46;;;;;;;8.73;5.05;;;;;;;8.29;51.72;102999.97;1755191;82;21478;-72
2022/03/22 03:15:17;;;;;;;10.43;5.83;;;;;;;8.29;51.64;102998.67;1755335;82;21015;-68
2022/03/22 03:17:45;;;;;;;10.65;5.75;;;;;;;8.26;51.72;103002.52;1755333;82;21089;-69
2022/03/22 03:20:12;;;;;;;10.03;5.50;;;;;;;8.24;51.72;103007.19;1754634;82;21045;-70
2022/03/22 03:22:41;;;;;;;9.03;5.78;;;;;;;8.22;51.77;103006.28;1754635;81;20994;-73
2022/03/22 03:25:09;;;;;;;9.03;5.22;;;;;;;8.22;51.89;103005.43;1748153;82;21057;-68
2022/03/22 03:27:38;;;;;;;11.10;6.33;;;;;;;8.19;51.92;103007.94;1755301;82;21526;-67
2022/03/22 03:30:06;;;;;;;11.05;5.50;;;;;;;8.18;51.95;103008.34;1755077;82;21045;-68
2022/03/22 03:32:36;;;;;;;8.30;5.15;;;;;;;8.16;52.00;103000.95;1755289;82;20995;-68
2022/03/22 03:35:04;;;;;;;8.60;5.80;;;;;;;8.15;52.13;102996.63;1755073;82;21554;-69
2022/03/22 03:37:36;;;;;;;9.85;5.35;;;;;;;8.12;52.21;102992.64;1755115;82;21073;-67
2022/03/22 03:40:04;;;;;;;9.20;5.55;;;;;;;8.11;52.24;102999.98;1755210;82;20975;-67
2022/03/22 03:42:31;;;;;;;10.05;5.55;;;;;;;8.08;52.31;102996.01;1755155;82;21548;-72
2022/03/22 03:47:46;;;;;;;9.65;5.28;;;;;;;8.04;52.49;103007.15;1754745;82;21081;-68
2022/03/22 03:50:14;;;;;;;9.35;5.62;;;;;;;8.02;52.65;103010.13;1754886;82;21035;-70
2022/03/22 03:52:41;;;;;;;7.60;5.40;;;;;;;8.00;52.72;103011.80;1755073;82;21003;-71
2022/03/22 03:55:10;;;;;;;9.00;5.10;;;;;;;7.99;52.76;103017.84;1769673;80;21113;-69
2022/03/22 03:57:37;;;;;;;7.47;5.10;;;;;;;7.96;52.70;103019.05;1763767;81;21038;-70
2022/03/22 04:00:07;;;;;;;8.38;4.83;;;;;;;7.95;52.66;103027.69;1763287;81;21054;-70
2022/03/22 04:02:36;;;;;;;8.63;6.07;;;;;;;7.94;52.69;103028.50;1711122;84;21006;-67
2022/03/22 04:05:05;;;;;;;8.78;5.58;;;;;;;7.96;52.69;103022.05;1711019;83;21054;-70
2022/03/22 04:07:34;;;;;;;8.55;5.60;;;;;;;7.94;52.69;103029.80;1708474;84;21054;-70
2022/03/22 04:10:02;;;;;;;9.93;5.65;;;;;;;7.93;52.73;103034.95;1711099;84;21640;-67
2022/03/22 04:12:29;;;;;;;10.15;5.17;;;;;;;7.92;52.89;103039.66;1710892;84;21027;-70
2022/03/22 04:14:57;;;;;;;10.68;6.08;;;;;;;7.92;52.87;103036.66;1710801;84;20999;-67
2022/03/22 04:17:24;;;;;;;9.73;5.50;;;;;;;7.93;52.96;103040.99;1711030;84;21023;-70
2022/03/22 04:19:53;;;;;;;10.20;5.20;;;;;;;7.91;53.04;103038.78;1711008;84;21014;-68
2022/03/22 04:22:20;;;;;;;8.13;5.05;;;;;;;7.93;52.99;103034.51;1711234;84;21606;-71
2022/03/22 04:24:48;;;;;;;8.95;5.42;;;;;;;7.95;53.01;103032.87;1710771;84;21050;-67
2022/03/22 04:32:48;;;;;;;10.65;5.75;;;;;;;7.99;52.92;103024.33;1711178;84;21046;-69
2022/03/22 04:35:20;;;;;;;10.35;5.80;;;;;;;8.01;52.94;103027.83;1711006;84;21026;-67
2022/03/22 04:37:49;;;;;;;9.63;5.47;;;;;;;8.05;52.89;103021.88;1711287;84;21019;-67
2022/03/22 04:40:16;;;;;;;9.15;5.28;;;;;;;8.07;52.82;103027.98;1743865;81;21486;-72
2022/03/22 04:42:47;;;;;;;11.75;5.80;;;;;;;8.08;52.82;103026.23;1766938;81;21006;-70
2022/03/22 04:45:14;;;;;;;8.13;5.35;;;;;;;8.09;52.73;103031.89;1765411;81;21431;-69
2022/03/22 04:47:45;;;;;;;8.20;4.67;;;;;;;8.10;52.71;103028.03;1764482;81;21065;-71
2022/03/22 04:50:10;;;;;;;9.43;4.97;;;;;;;8.13;52.65;103035.91;1764927;81;21479;-70
2022/03/22 04:58:10;;;;;;;11.88;5.75;;;;;;;8.17;52.57;103054.59;1775016;80;20987;-70
2022/03/22 05:00:37;;;;;;;9.48;5.33;;;;;;;8.16;52.71;103058.00;1774820;80;21026;-67
2022/03/22 05:03:08;;;;;;;7.35;5.22;;;;;;;8.16;52.87;103054.11;1758580;80;21077;-67
2022/03/22 05:08:25;;;;;;;7.83;5.50;;;;;;;8.17;52.96;103057.59;1781268;80;21082;-67
2022/03/22 05:10:59;;;;;;;9.03;5.25;;;;;;;8.21;52.93;103057.72;1774923;80;21070;-70
2022/03/22 05:13:26;;;;;;;11.93;6.10;;;;;;;8.27;52.79;103069.09;1774899;80;21070;-67
2022/03/22 05:15:55;;;;;;;10.65;5.35;;;;;;;8.28;52.46;103061.38;1774834;80;21062;-70
2022/03/22 05:18:23;;;;;;;9.33;5.35;;;;;;;8.30;52.35;103061.40;1772558;80;21095;-68
2022/03/22 05:20:50;;;;;;;9.05;5.28;;;;;;;8.31;52.24;103068.33;1771763;80;21010;-71
2022/03/22 05:23:17;;;;;;;9.38;5.22;;;;;;;8.34;52.19;103070.59;1771326;80;21042;-70
2022/03/22 05:25:45;;;;;;;11.35;5.03;;;;;;;8.38;52.09;103070.23;1771986;80;21046;-68
2022/03/22 05:28:13;;;;;;;9.75;5.30;;;;;;;8.42;51.94;103078.55;1771923;80;21050;-71
2022/03/22 05:30:41;;;;;;;13.40;5.58;;;;;;;8.46;51.61;103073.89;1769372;80;21451;-69
2022/03/22 05:33:08;;;;;;;13.93;6.05;;;;;;;8.51;51.56;103086.56;1764975;80;21007;-72
2022/03/22 05:35:36;;;;;;;9.85;5.35;;;;;;;8.53;51.48;103084.44;1772022;80;21077;-68
2022/03/22 05:38:03;;;;;;;10.55;4.95;;;;;;;8.56;51.52;103083.64;1768747;80;21041;-70
2022/03/22 05:40:31;;;;;;;10.65;4.72;;;;;;;8.58;51.04;103076.77;1770065;80;21057;-70
2022/03/22 05:42:58;;;;;;;12.98;4.95;;;;;;;8.66;50.71;103079.11;1771628;80;21034;-70
2022/03/22 05:47:56;;;;;;;12.95;5.15;;;;;;;8.84;49.97;103086.90;1691809;84;21042;-69
2022/03/22 05:50:23;;;;;;;11.88;5.20;;;;;;;8.93;49.64;103099.21;1689210;84;21518;-70
2022/03/22 05:52:51;;;;;;;11.97;5.37;;;;;;;8.97;49.64;103095.42;1688221;84;21031;-70
2022/03/22 05:55:18;;;;;;;11.40;4.80;;;;;;;9.03;49.41;103092.08;1690667;84;21136;-71
2022/03/22 05:57:46;;;;;;;13.20;5.78;;;;;;;9.06;49.41;103098.64;1692637;84;21142;-70
2022/03/22 06:00:14;;;;;;;10.08;5.10;;;;;;;9.11;49.39;103093.11;1692992;84;21051;-70
2022/03/22 06:02:42;;;;;;;11.73;4.70;;;;;;;9.15;49.39;103091.48;1688945;84;21487;-71
2022/03/22 06:07:39;;;;;;;16.05;5.30;;;;;;;9.41;49.20;103097.66;1640483;87;21610;-72
2022/03/22 06:10:09;;;;;;;14.03;4.90;;;;;;;9.59;48.64;103094.13;1645492;87;21602;-67
2022/03/22 06:12:41;;;;;;;12.28;5.12;;;;;;;9.79;48.35;103100.98;1643422;87;21018;-68
2022/03/22 06:15:18;;;;;;;12.30;5.25;;;;;;;10.02;48.10;103096.20;1659621;86;22308;-70
2022/03/22 06:17:56;;;;;;;13.22;5.83;;;;;;;10.25;47.54;103097.51;1639047;87;21165;-68
2022/03/22 06:20:27;;;;;;;16.45;5.47;;;;;;;10.45;46.89;103093.49;1639334;87;21071;-71
2022/03/22 06:22:55;;;;;;;13.47;5.53;;;;;;;10.54;46.63;103106.67;1612599;89;21076;-71
2022/03/22 06:25:22;;;;;;;15.53;6.22;;;;;;;10.56;46.46;103106.27;1612737;89;21112;-68
2022/03/22 06:27:53;;;;;;;14.78;5.67;;;;;;;10.57;46.58;103101.52;1612094;88;21057;-68
2022/03/22 06:30:21;;;;;;;10.80;5.35;;;;;;;10.65;46.51;103095.55;1609345;88;21596;-76
2022/03/22 06:32:55;;;;;;;10.95;4.97;;;;;;;10.78;46.21;103104.42;1612482;89;21551;-71
2022/03/22 06:35:25;;;;;;;14.15;5.20;;;;;;;10.91;45.88;103110.69;1612521;89;21060;-68
2022/03/22 06:37:52;;;;;;;16.40;6.25;;;;;;;10.97;45.74;103111.66;1595179;89;21108;-68
2022/03/22 06:40:21;;;;;;;12.00;5.47;;;;;;;11.01;45.45;103117.77;1613637;89;21077;-71
2022/03/22 06:42:49;;;;;;;16.00;5.85;;;;;;;11.03;45.21;103123.46;1613462;89;21155;-70
2022/03/22 06:45:16;;;;;;;11.45;5.97;;;;;;;11.03;45.14;103127.38;1615685;89;21054;-68
2022/03/22 06:47:43;;;;;;;13.65;5.12;;;;;;;11.04;45.08;103120.02;1619883;87;21589;-69
2022/03/22 06:50:13;;;;;;;11.88;4.95;;;;;;;11.09;45.02;103127.45;1626775;88;21098;-74
2022/03/22 06:52:41;;;;;;;12.90;5.47;;;;;;;11.13;44.61;103134.87;1625288;88;21071;-71
2022/03/22 06:55:09;;;;;;;12.00;4.97;;;;;;;11.15;44.53;103134.47;1625578;88;21117;-71
2022/03/22 06:57:37;;;;;;;11.97;5.83;;;;;;;11.12;44.60;103132.72;1626102;88;21061;-69
2022/03/22 07:00:08;;;;;;;13.55;5.78;;;;;;;11.06;44.61;103143.06;1626075;88;21086;-71
2022/03/22 07:02:38;;;;;;;14.43;5.53;;;;;;;11.02;44.36;103134.75;1624934;88;21525;-69
2022/03/22 07:05:08;;;;;;;15.55;5.22;;;;;;;11.02;44.59;103147.78;1663604;85;21037;-68
2022/03/22 07:07:35;;;;;;;13.48;5.92;;;;;;;11.04;44.59;103155.20;1677080;85;21065;-70
2022/03/22 07:10:05;;;;;;;11.45;5.53;;;;;;;11.12;44.44;103151.38;1680103;85;21062;-71
2022/03/22 07:12:33;;;;;;;11.10;5.05;;;;;;;11.18;44.39;103166.68;1684944;85;21047;-70
2022/03/22 07:15:03;;;;;;;8.70;4.83;;;;;;;11.25;44.35;103176.77;1688312;84;21018;-71
2022/03/22 07:17:32;;;;;;;13.85;5.28;;;;;;;11.33;44.43;103181.20;1687239;85;21086;-73
2022/03/22 07:20:00;;;;;;;13.13;5.83;;;;;;;11.41;44.43;103173.09;1740519;80;21478;-72
2022/03/22 07:22:28;;;;;;;18.02;6.67;;;;;;;11.50;44.45;103176.66;1775042;80;21002;-74
2022/03/22 07:24:56;;;;;;;11.35;5.87;;;;;;;11.53;44.49;103187.12;1774396;80;21053;-68
2022/03/22 07:27:24;;;;;;;12.37;6.70;;;;;;;11.58;44.50;103188.06;1778641;80;21022;-72
2022/03/22 07:29:51;;;;;;;14.38;6.10;;;;;;;11.56;44.40;103178.89;1773547;80;21560;-71
2022/03/22 07:32:19;;;;;;;15.50;6.37;;;;;;;11.54;44.50;103188.89;1769038;80;21503;-71
2022/03/22 07:34:46;;;;;;;14.98;5.92;;;;;;;11.45;44.57;103190.52;1775048;80;21022;-72
2022/03/22 07:37:14;;;;;;;12.35;5.97;;;;;;;11.39;44.66;103185.23;1774697;80;21002;-68
2022/03/22 07:39:42;;;;;;;14.55;6.37;;;;;;;11.31;44.79;103188.13;1763759;80;21018;-69
2022/03/22 07:42:12;;;;;;;16.62;6.95;;;;;;;11.26;45.00;103190.23;1771638;80;20983;-72
2022/03/22 07:44:39;;;;;;;16.12;5.83;;;;;;;11.16;45.01;103191.84;1774030;80;21018;-70
2022/03/22 07:47:07;;;;;;;15.13;5.72;;;;;;;11.08;45.11;103179.55;1774886;80;20991;-68
2022/03/22 07:55:10;;;;;;;12.15;5.67;;;;;;;10.89;45.67;103194.03;1769054;80;21101;-71
2022/03/22 07:57:38;;;;;;;15.75;6.30;;;;;;;10.86;45.88;103190.06;1762548;81;21042;-71
2022/03/22 08:00:07;;;;;;;11.65;5.78;;;;;;;10.87;45.96;103195.73;1763552;81;21015;-67
2022/03/22 08:02:36;;;;;;;18.10;7.03;;;;;;;10.86;46.02;103199.17;1763693;81;21038;-71
2022/03/22 08:05:05;;;;;;;13.70;5.87;;;;;;;10.89;46.15;103199.23;1763652;81;21517;-70
2022/03/22 08:07:34;;;;;;;15.58;6.00;;;;;;;10.91;45.97;103187.11;1763705;81;21454;-71
2022/03/22 08:10:02;;;;;;;14.70;6.00;;;;;;;10.91;45.93;103192.33;1765210;81;21045;-67
2022/03/22 08:12:31;;;;;;;17.65;6.15;;;;;;;10.92;46.07;103199.27;1766855;81;21065;-69
2022/03/22 08:14:58;;;;;;;17.52;6.30;;;;;;;10.93;45.83;103206.25;1764693;81;21075;-73
2022/03/22 08:17:26;;;;;;;14.63;5.92;;;;;;;10.97;45.80;103214.56;1764637;81;21094;-70
2022/03/22 08:19:53;;;;;;;10.15;4.83;;;;;;;11.01;45.72;103206.35;1765923;81;21042;-71
2022/03/22 08:22:22;;;;;;;12.23;5.75;;;;;;;11.04;45.76;103219.02;1761417;81;21049;-71
2022/03/22 08:24:49;;;;;;;13.35;6.08;;;;;;;11.10;45.68;103210.00;1777437;81;21088;-72
2022/03/22 08:27:16;;;;;;;17.15;6.33;;;;;;;11.13;45.62;103215.23;1763619;81;21027;-68
2022/03/22 08:29:44;;;;;;;14.23;5.97;;;;;;;11.14;45.48;103218.30;1766055;81;21026;-70
2022/03/22 08:32:11;;;;;;;12.18;5.85;;;;;;;11.16;45.42;103221.81;1767026;81;21003;-67
2022/03/22 08:34:38;;;;;;;12.45;5.53;;;;;;;11.15;45.53;103221.34;1766791;81;21479;-71
2022/03/22 08:37:06;;;;;;;15.75;6.17;;;;;;;11.16;45.69;103219.63;1762932;81;21007;-68
2022/03/22 08:39:33;;;;;;;12.60;5.65;;;;;;;11.16;45.68;103213.99;1776014;81;21595;-72
2022/03/22 08:42:00;;;;;;;15.40;6.55;;;;;;;11.19;45.67;103220.53;1771360;81;21011;-70
2022/03/22 08:44:28;;;;;;;12.58;6.10;;;;;;;11.22;45.80;103220.59;1766803;81;20979;-71
2022/03/22 08:46:55;;;;;;;20.45;6.00;;;;;;;11.18;45.55;103210.09;1766772;81;21030;-74
2022/03/22 08:49:22;;;;;;;13.80;6.10;;;;;;;11.12;45.94;103215.22;1770120;81;21036;-74
2022/03/22 08:51:50;;;;;;;15.08;6.47;;;;;;;11.13;46.15;103215.23;1765046;81;21073;-72
2022/03/22 08:54:18;;;;;;;14.95;6.15;;;;;;;11.18;46.18;103208.38;1752779;81;21030;-72
2022/03/22 08:56:46;;;;;;;13.65;6.37;;;;;;;11.25;46.05;103213.25;1771024;80;21585;-72
2022/03/22 08:59:13;;;;;;;15.72;6.60;;;;;;;11.25;46.08;103215.41;1775201;80;20977;-72
2022/03/22 10:08:12;;;;;;;11.48;5.10;;;;;;;12.71;42.59;103224.55;1727432;80;21095;-67
2022/03/22 10:11:01;;;;;;;11.53;4.95;;;;;;;12.74;42.51;103221.53;1707397;83;21491;-67
2022/03/22 10:13:28;;;;;;;10.95;5.00;;;;;;;12.80;42.39;103222.88;1703489;83;21013;-66
2022/03/22 10:16:03;;;;;;;10.78;4.60;;;;;;;12.83;42.24;103228.15;1707037;83;21095;-66
2022/03/22 10:18:35;;;;;;;10.20;4.87;;;;;;;12.85;41.92;103218.59;1707608;83;21000;-67
2022/03/22 10:21:04;;;;;;;8.55;3.95;;;;;;;12.85;42.10;103219.89;1703628;83;21004;-68
2022/03/22 10:23:32;;;;;;;10.78;4.33;;;;;;;12.90;42.19;103213.40;1704120;83;21072;-66
2022/03/22 10:26:07;;;;;;;10.03;4.22;;;;;;;12.99;41.91;103220.86;1704338;83;21618;-67
2022/03/22 10:28:37;;;;;;;10.53;4.00;;;;;;;13.03;41.61;103216.10;1594686;89;21521;-67
2022/03/22 10:31:05;;;;;;;9.05;3.90;;;;;;;13.09;41.39;103213.98;1597535;89;21077;-67
2022/03/22 10:33:32;;;;;;;6.22;3.40;;;;;;;13.21;40.94;103215.83;1566589;91;21047;-67
2022/03/22 10:36:07;;;;;;;11.05;4.28;;;;;;;13.31;40.58;103215.02;1574268;91;21077;-67
2022/03/22 10:38:35;;;;;;;7.10;3.10;;;;;;;13.41;40.26;103217.70;1575737;89;21093;-68
2022/03/22 10:41:07;;;;;;;9.13;3.80;;;;;;;13.52;40.17;103216.41;1590597;88;21083;-69
2022/03/22 10:43:36;;;;;;;9.30;3.55;;;;;;;13.60;40.06;103226.05;1591121;89;21038;-68
2022/03/22 10:46:05;;;;;;;7.37;3.47;;;;;;;13.67;40.05;103221.73;1546131;91;21079;-69
2022/03/22 10:48:37;;;;;;;9.58;3.58;;;;;;;13.66;40.25;103216.92;1600832;89;21583;-68
2022/03/22 10:51:06;;;;;;;11.90;4.80;;;;;;;13.66;40.23;103214.31;1596353;89;21576;-70
2022/03/22 10:53:34;;;;;;;7.10;3.17;;;;;;;13.63;40.38;103217.36;1593126;89;21058;-68
2022/03/22 10:56:03;;;;;;;8.95;3.33;;;;;;;13.58;40.55;103215.17;1562051;91;21643;-68
2022/03/22 10:58:31;;;;;;;10.25;4.08;;;;;;;13.58;40.81;103208.17;1603677;86;21077;-68
2022/03/22 11:01:02;;;;;;;8.80;3.75;;;;;;;13.61;40.84;103209.51;1651221;86;21042;-68
2022/03/22 11:03:32;;;;;;;8.05;3.45;;;;;;;13.60;40.89;103209.05;1655156;86;21525;-69
2022/03/22 11:06:04;;;;;;;10.45;4.15;;;;;;;13.60;40.66;103210.81;1655524;86;21070;-68
2022/03/22 11:08:32;;;;;;;6.42;3.00;;;;;;;13.63;40.67;103217.36;1608894;88;21130;-64
2022/03/22 11:10:59;;;;;;;5.60;3.05;;;;;;;13.67;40.49;103215.19;1602089;89;21066;-68
2022/03/22 11:13:28;;;;;;;9.00;3.00;;;;;;;13.72;40.41;103210.87;1601779;89;21031;-69
2022/03/22 11:15:55;;;;;;;7.65;3.35;;;;;;;13.79;40.17;103204.77;1601823;89;21090;-66
2022/03/22 11:18:27;;;;;;;5.70;2.83;;;;;;;13.84;40.06;103205.67;1600049;89;21195;-65
2022/03/22 11:20:59;;;;;;;6.10;2.87;;;;;;;13.86;39.82;103201.32;1601180;89;21062;-66
2022/03/22 11:23:31;;;;;;;7.28;3.65;;;;;;;13.89;39.84;103202.20;1601977;89;21155;-67
2022/03/22 11:26:13;;;;;;;6.33;2.50;;;;;;;13.95;39.68;103206.56;1601681;88;21074;-66
2022/03/22 11:28:41;;;;;;;5.80;2.22;;;;;;;14.04;39.55;103206.61;1583672;90;21546;-68
2022/03/22 11:31:09;;;;;;;5.58;2.92;;;;;;;14.12;39.13;103211.42;1588405;89;21077;-66
2022/03/22 11:36:27;;;;;;;9.55;2.83;;;;;;;14.22;38.56;103203.17;1586119;89;21606;-66
2022/03/22 11:38:56;;;;;;;5.58;2.30;;;;;;;14.24;38.64;103205.36;1586154;90;21582;-66
2022/03/22 11:44:38;;;;;;;6.40;2.60;;;;;;;14.13;38.72;103204.02;1542582;91;21060;-67
2022/03/22 11:47:18;;;;;;;6.45;2.40;;;;;;;14.06;38.96;103199.63;1554449;91;21100;-67
2022/03/22 11:50:00;;;;;;;4.83;2.62;;;;;;;13.99;39.04;103195.27;1539082;91;21618;-69
2022/03/22 11:52:40;;;;;;;;;;;;;;;14.03;39.20;103205.30;1543548;92;21037;-68
2022/03/22 11:55:21;;;;;;;8.08;2.92;;;;;;;14.07;38.89;103206.63;1540516;93;20189;-69
2022/03/22 11:58:08;;;;;;;6.92;2.80;;;;;;;14.10;38.86;103206.63;1523628;93;21181;-67
2022/03/22 12:00:51;;;;;;;6.62;2.20;;;;;;;14.12;38.72;103204.88;1529074;93;21618;-67
2022/03/22 12:03:19;;;;;;;4.87;2.37;;;;;;;14.12;38.62;103202.27;1493279;95;21072;-67
2022/03/22 12:05:46;;;;;;;5.55;2.55;;;;;;;14.11;38.70;103202.27;1538586;91;21154;-68
2022/03/22 12:08:14;;;;;;;9.15;3.00;;;;;;;14.08;38.66;103201.81;1544621;92;21633;-68
2022/03/22 12:10:52;;;;;;;10.32;3.55;;;;;;;14.03;38.93;103206.19;1522696;93;21623;-68
2022/03/22 12:13:19;;;;;;;8.35;3.02;;;;;;;14.01;39.14;103198.77;1498148;94;21126;-67
2022/03/22 12:16:00;;;;;;;5.40;2.70;;;;;;;14.01;39.23;103201.38;1490839;95;21122;-63
2022/03/22 12:18:29;;;;;;;6.22;2.40;;;;;;;13.98;39.27;103207.90;1477380;96;21128;-66
2022/03/22 12:20:56;;;;;;;5.47;2.08;;;;;;;13.97;39.35;103198.74;1492622;95;21589;-64
2022/03/22 12:23:24;;;;;;;5.40;2.40;;;;;;;14.00;39.26;103206.16;1483871;95;21612;-67
2022/03/22 12:25:51;;;;;;;6.47;2.30;;;;;;;13.97;39.10;103198.74;1475662;96;21129;-66
2022/03/22 12:28:19;;;;;;;6.15;2.20;;;;;;;13.97;38.96;103202.24;1489344;96;21666;-67
2022/03/22 12:30:48;;;;;;;5.25;2.67;;;;;;;14.00;38.91;103198.73;1500536;94;21085;-66
2022/03/22 12:33:21;;;;;;;4.15;2.12;;;;;;;14.05;38.68;103203.14;1487356;95;21185;-66
2022/03/22 12:35:49;;;;;;;11.35;2.20;;;;;;;14.08;38.49;103200.51;1494487;94;21601;-66
2022/03/22 12:38:18;;;;;;;8.00;2.42;;;;;;;14.15;38.28;103202.28;1535599;93;21685;-66
2022/03/22 12:40:47;;;;;;;5.75;2.42;;;;;;;14.21;37.84;103204.91;1538003;93;21580;-67
2022/03/22 12:43:19;;;;;;;7.72;2.27;;;;;;;14.27;37.72;103199.69;1538992;93;21103;-61
2022/03/22 12:48:18;;;;;;;5.47;2.40;;;;;;;14.38;37.70;103202.36;1471291;97;21669;-64
2022/03/22 12:50:47;;;;;;;5.70;2.35;;;;;;;14.42;37.59;103199.75;1470633;97;21085;-67
2022/03/22 12:53:14;;;;;;;5.58;1.87;;;;;;;14.45;37.55;103203.66;1469182;97;21113;-65
2022/03/22 12:55:42;;;;;;;3.75;1.90;;;;;;;14.52;37.30;103203.24;1555357;91;21073;-65
2022/03/22 12:58:11;;;;;;;3.85;1.85;;;;;;;14.57;37.16;103197.13;1546042;93;21078;-63
2022/03/22 13:00:40;;;;;;;5.92;2.02;;;;;;;14.62;37.01;103200.63;1575853;91;21186;-65
2022/03/22 13:03:17;;;;;;;4.80;1.90;;;;;;;14.67;36.95;103211.12;1576249;91;21545;-67
2022/03/22 13:08:26;;;;;;;6.62;2.15;;;;;;;14.71;37.23;103209.36;1527580;92;21095;-67
2022/03/22 13:16:34;;;;;;;3.65;1.77;;;;;;;14.73;37.60;103212.86;1527413;92;21114;-67
2022/03/22 13:19:04;;;;;;;5.65;2.40;;;;;;;14.76;37.78;103211.53;1557036;91;21081;-67
2022/03/22 13:21:36;;;;;;;10.15;2.15;;;;;;;14.75;37.64;103211.11;1559967;91;21108;-67
2022/03/22 13:24:07;;;;;;;;;;;;;;;14.71;37.90;103211.98;1560773;92;21041;-68
2022/03/22 13:26:36;;;;;;;6.33;2.00;;;;;;;14.68;37.98;103203.25;1558296;92;20132;-68
2022/03/22 13:29:13;;;;;;;3.15;1.57;;;;;;;14.64;38.12;103204.12;1557760;92;21609;-66
2022/03/22 13:31:59;;;;;;;5.97;3.10;;;;;;;14.58;38.19;103204.12;1558499;92;21608;-66